sensor_id;sensor_type;location;lat;lon;timestamp;P1;durP1;ratioP1;P2;durP2;ratioP2
75459;SDS011;64039;53.060;9.342;2023-03-23T00:01:05;14.82;;;9.80;;
75459;SDS011;64039;53.060;9.342;2023-03-23T00:03:32;12.73;;;8.98;;
75459;SDS011;64039;53.060;9.342;2023-03-23T00:05:58;14.35;;;9.27;;
75459;SDS011;64039;53.060;9.342;2023-03-23T00:08:33;15.88;;;9.85;;
75459;SDS011;64039;53.060;9.342;2023-03-23T00:11:12;14.07;;;9.30;;
75459;SDS011;64039;53.060;9.342;2023-03-23T00:13:43;14.60;;;9.45;;
75459;SDS011;64039;53.060;9.342;2023-03-23T00:16:11;15.30;;;9.45;;
75459;SDS011;64039;53.060;9.342;2023-03-23T00:18:45;17.23;;;9.27;;
75459;SDS011;64039;53.060;9.342;2023-03-23T00:21:13;14.30;;;9.38;;
75459;SDS011;64039;53.060;9.342;2023-03-23T00:23:39;16.48;;;9.77;;
75459;SDS011;64039;53.060;9.342;2023-03-23T00:26:05;18.23;;;9.80;;
75459;SDS011;64039;53.060;9.342;2023-03-23T00:28:31;14.63;;;9.32;;
75459;SDS011;64039;53.060;9.342;2023-03-23T00:31:07;13.25;;;9.38;;
75459;SDS011;64039;53.060;9.342;2023-03-23T00:33:35;16.80;;;9.95;;
75459;SDS011;64039;53.060;9.342;2023-03-23T00:36:06;15.90;;;10.37;;
75459;SDS011;64039;53.060;9.342;2023-03-23T00:38:34;15.77;;;10.13;;
75459;SDS011;64039;53.060;9.342;2023-03-23T00:41:02;17.48;;;10.27;;
75459;SDS011;64039;53.060;9.342;2023-03-23T00:43:28;14.80;;;8.82;;
75459;SDS011;64039;53.060;9.342;2023-03-23T00:45:55;12.93;;;9.07;;
75459;SDS011;64039;53.060;9.342;2023-03-23T00:48:22;12.48;;;8.98;;
75459;SDS011;64039;53.060;9.342;2023-03-23T00:50:49;13.55;;;8.98;;
75459;SDS011;64039;53.060;9.342;2023-03-23T00:53:16;16.75;;;8.70;;
75459;SDS011;64039;53.060;9.342;2023-03-23T00:55:42;11.75;;;8.25;;
75459;SDS011;64039;53.060;9.342;2023-03-23T00:58:10;12.43;;;8.38;;
75459;SDS011;64039;53.060;9.342;2023-03-23T01:00:37;15.57;;;7.93;;
75459;SDS011;64039;53.060;9.342;2023-03-23T01:03:03;16.27;;;8.55;;
75459;SDS011;64039;53.060;9.342;2023-03-23T01:05:29;11.88;;;7.68;;
75459;SDS011;64039;53.060;9.342;2023-03-23T01:07:58;15.35;;;8.20;;
75459;SDS011;64039;53.060;9.342;2023-03-23T01:10:24;12.98;;;8.32;;
75459;SDS011;64039;53.060;9.342;2023-03-23T01:12:51;11.13;;;7.80;;
75459;SDS011;64039;53.060;9.342;2023-03-23T01:15:18;10.63;;;7.35;;
75459;SDS011;64039;53.060;9.342;2023-03-23T01:17:44;11.30;;;7.45;;
75459;SDS011;64039;53.060;9.342;2023-03-23T01:20:14;13.00;;;7.95;;
75459;SDS011;64039;53.060;9.342;2023-03-23T01:22:40;10.85;;;7.50;;
75459;SDS011;64039;53.060;9.342;2023-03-23T01:25:07;14.75;;;8.15;;
75459;SDS011;64039;53.060;9.342;2023-03-23T01:27:35;10.75;;;7.10;;
75459;SDS011;64039;53.060;9.342;2023-03-23T01:30:01;11.98;;;6.68;;
75459;SDS011;64039;53.060;9.342;2023-03-23T01:32:27;10.75;;;7.75;;
75459;SDS011;64039;53.060;9.342;2023-03-23T01:34:53;10.50;;;7.40;;
75459;SDS011;64039;53.060;9.342;2023-03-23T01:37:18;12.70;;;7.47;;
75459;SDS011;64039;53.060;9.342;2023-03-23T01:39:45;10.95;;;7.65;;
75459;SDS011;64039;53.060;9.342;2023-03-23T01:42:11;11.60;;;7.35;;
75459;SDS011;64039;53.060;9.342;2023-03-23T01:47:02;10.75;;;7.15;;
75459;SDS011;64039;53.060;9.342;2023-03-23T01:49:29;12.07;;;7.47;;
75459;SDS011;64039;53.060;9.342;2023-03-23T01:52:02;12.75;;;7.25;;
75459;SDS011;64039;53.060;9.342;2023-03-23T01:54:42;12.15;;;7.15;;
75459;SDS011;64039;53.060;9.342;2023-03-23T01:57:14;11.30;;;7.28;;
75459;SDS011;64039;53.060;9.342;2023-03-23T01:59:43;11.60;;;7.82;;
75459;SDS011;64039;53.060;9.342;2023-03-23T02:02:14;11.27;;;7.65;;
75459;SDS011;64039;53.060;9.342;2023-03-23T02:04:41;10.25;;;7.70;;
75459;SDS011;64039;53.060;9.342;2023-03-23T02:07:07;10.77;;;7.38;;
75459;SDS011;64039;53.060;9.342;2023-03-23T02:09:33;9.00;;;7.50;;
75459;SDS011;64039;53.060;9.342;2023-03-23T02:11:59;12.00;;;7.78;;
75459;SDS011;64039;53.060;9.342;2023-03-23T02:14:25;8.90;;;6.75;;
75459;SDS011;64039;53.060;9.342;2023-03-23T02:16:55;9.68;;;7.20;;
75459;SDS011;64039;53.060;9.342;2023-03-23T02:33:47;9.85;;;6.63;;
75459;SDS011;64039;53.060;9.342;2023-03-23T02:36:40;8.10;;;6.30;;
75459;SDS011;64039;53.060;9.342;2023-03-23T02:39:33;9.85;;;6.90;;
75459;SDS011;64039;53.060;9.342;2023-03-23T02:42:06;10.77;;;7.00;;
75459;SDS011;64039;53.060;9.342;2023-03-23T02:44:35;8.95;;;6.70;;
75459;SDS011;64039;53.060;9.342;2023-03-23T02:47:06;9.95;;;7.25;;
75459;SDS011;64039;53.060;9.342;2023-03-23T02:49:36;12.65;;;6.82;;
75459;SDS011;64039;53.060;9.342;2023-03-23T02:52:04;9.60;;;6.60;;
75459;SDS011;64039;53.060;9.342;2023-03-23T02:54:33;11.90;;;6.63;;
75459;SDS011;64039;53.060;9.342;2023-03-23T02:57:00;8.60;;;6.88;;
75459;SDS011;64039;53.060;9.342;2023-03-23T02:59:27;9.25;;;7.32;;
75459;SDS011;64039;53.060;9.342;2023-03-23T03:02:07;8.85;;;7.00;;
75459;SDS011;64039;53.060;9.342;2023-03-23T03:04:36;10.10;;;7.15;;
75459;SDS011;64039;53.060;9.342;2023-03-23T03:10:13;9.65;;;7.07;;
75459;SDS011;64039;53.060;9.342;2023-03-23T03:15:30;10.35;;;7.35;;
75459;SDS011;64039;53.060;9.342;2023-03-23T03:18:44;9.77;;;6.97;;
75459;SDS011;64039;53.060;9.342;2023-03-23T03:20:58;10.70;;;7.18;;
75459;SDS011;64039;53.060;9.342;2023-03-23T03:23:27;11.95;;;7.75;;
75459;SDS011;64039;53.060;9.342;2023-03-23T03:25:54;12.63;;;7.38;;
75459;SDS011;64039;53.060;9.342;2023-03-23T03:28:22;11.50;;;7.28;;
75459;SDS011;64039;53.060;9.342;2023-03-23T03:30:55;8.10;;;6.95;;
75459;SDS011;64039;53.060;9.342;2023-03-23T03:33:25;10.07;;;6.90;;
75459;SDS011;64039;53.060;9.342;2023-03-23T03:35:56;9.40;;;6.80;;
75459;SDS011;64039;53.060;9.342;2023-03-23T03:38:24;10.55;;;7.20;;
75459;SDS011;64039;53.060;9.342;2023-03-23T03:40:50;9.82;;;7.20;;
75459;SDS011;64039;53.060;9.342;2023-03-23T03:43:16;9.73;;;6.43;;
75459;SDS011;64039;53.060;9.342;2023-03-23T03:45:41;9.52;;;7.15;;
75459;SDS011;64039;53.060;9.342;2023-03-23T03:48:07;11.57;;;7.45;;
75459;SDS011;64039;53.060;9.342;2023-03-23T03:50:32;8.35;;;6.85;;
75459;SDS011;64039;53.060;9.342;2023-03-23T03:52:58;8.88;;;7.00;;
75459;SDS011;64039;53.060;9.342;2023-03-23T03:55:24;9.77;;;7.45;;
75459;SDS011;64039;53.060;9.342;2023-03-23T03:57:50;9.95;;;8.00;;
75459;SDS011;64039;53.060;9.342;2023-03-23T04:00:15;10.43;;;7.63;;
75459;SDS011;64039;53.060;9.342;2023-03-23T04:02:42;11.13;;;7.40;;
75459;SDS011;64039;53.060;9.342;2023-03-23T04:05:09;9.13;;;7.40;;
75459;SDS011;64039;53.060;9.342;2023-03-23T04:07:36;10.20;;;7.40;;
75459;SDS011;64039;53.060;9.342;2023-03-23T04:10:04;10.73;;;7.55;;
75459;SDS011;64039;53.060;9.342;2023-03-23T04:12:33;9.20;;;7.40;;
75459;SDS011;64039;53.060;9.342;2023-03-23T04:14:59;11.80;;;7.18;;
75459;SDS011;64039;53.060;9.342;2023-03-23T04:17:25;10.32;;;7.45;;
75459;SDS011;64039;53.060;9.342;2023-03-23T04:19:51;9.05;;;6.93;;
75459;SDS011;64039;53.060;9.342;2023-03-23T04:22:17;10.65;;;6.65;;
75459;SDS011;64039;53.060;9.342;2023-03-23T04:24:43;9.95;;;6.75;;
75459;SDS011;64039;53.060;9.342;2023-03-23T04:27:08;10.25;;;6.78;;
75459;SDS011;64039;53.060;9.342;2023-03-23T04:29:33;8.15;;;6.03;;
75459;SDS011;64039;53.060;9.342;2023-03-23T04:31:59;12.27;;;6.47;;
75459;SDS011;64039;53.060;9.342;2023-03-23T04:34:26;10.73;;;5.85;;
75459;SDS011;64039;53.060;9.342;2023-03-23T04:36:52;8.77;;;5.72;;
75459;SDS011;64039;53.060;9.342;2023-03-23T04:39:18;7.38;;;5.55;;
75459;SDS011;64039;53.060;9.342;2023-03-23T04:41:44;6.40;;;4.72;;
75459;SDS011;64039;53.060;9.342;2023-03-23T04:44:11;9.40;;;5.53;;
75459;SDS011;64039;53.060;9.342;2023-03-23T04:46:42;10.32;;;5.03;;
75459;SDS011;64039;53.060;9.342;2023-03-23T04:49:10;8.02;;;5.35;;
75459;SDS011;64039;53.060;9.342;2023-03-23T04:51:36;8.48;;;5.00;;
75459;SDS011;64039;53.060;9.342;2023-03-23T04:54:04;8.20;;;5.05;;
75459;SDS011;64039;53.060;9.342;2023-03-23T04:56:29;7.50;;;4.80;;
75459;SDS011;64039;53.060;9.342;2023-03-23T04:58:55;7.00;;;5.10;;
75459;SDS011;64039;53.060;9.342;2023-03-23T05:01:20;8.80;;;4.95;;
75459;SDS011;64039;53.060;9.342;2023-03-23T05:03:46;5.70;;;4.22;;
75459;SDS011;64039;53.060;9.342;2023-03-23T05:06:11;6.97;;;4.50;;
75459;SDS011;64039;53.060;9.342;2023-03-23T05:08:37;8.77;;;4.80;;
75459;SDS011;64039;53.060;9.342;2023-03-23T05:11:04;8.25;;;4.97;;
75459;SDS011;64039;53.060;9.342;2023-03-23T05:13:30;6.80;;;4.20;;
75459;SDS011;64039;53.060;9.342;2023-03-23T05:15:56;7.57;;;4.20;;
75459;SDS011;64039;53.060;9.342;2023-03-23T05:18:22;7.10;;;4.25;;
75459;SDS011;64039;53.060;9.342;2023-03-23T05:20:47;6.93;;;4.38;;
75459;SDS011;64039;53.060;9.342;2023-03-23T05:23:13;7.13;;;4.20;;
75459;SDS011;64039;53.060;9.342;2023-03-23T05:25:39;6.22;;;3.85;;
75459;SDS011;64039;53.060;9.342;2023-03-23T05:28:09;6.90;;;3.80;;
75459;SDS011;64039;53.060;9.342;2023-03-23T05:30:35;7.63;;;3.92;;
75459;SDS011;64039;53.060;9.342;2023-03-23T05:33:02;7.20;;;3.80;;
75459;SDS011;64039;53.060;9.342;2023-03-23T05:35:28;7.60;;;3.78;;
75459;SDS011;64039;53.060;9.342;2023-03-23T05:37:53;7.50;;;3.53;;
75459;SDS011;64039;53.060;9.342;2023-03-23T05:40:20;8.40;;;3.75;;
75459;SDS011;64039;53.060;9.342;2023-03-23T05:42:47;8.15;;;3.28;;
75459;SDS011;64039;53.060;9.342;2023-03-23T05:45:13;5.53;;;3.65;;
75459;SDS011;64039;53.060;9.342;2023-03-23T05:47:39;6.90;;;3.63;;
75459;SDS011;64039;53.060;9.342;2023-03-23T05:50:06;5.22;;;3.15;;
75459;SDS011;64039;53.060;9.342;2023-03-23T05:52:34;7.63;;;3.70;;
75459;SDS011;64039;53.060;9.342;2023-03-23T05:55:01;5.45;;;2.95;;
75459;SDS011;64039;53.060;9.342;2023-03-23T05:57:28;3.55;;;2.67;;
75459;SDS011;64039;53.060;9.342;2023-03-23T05:59:54;6.45;;;3.47;;
75459;SDS011;64039;53.060;9.342;2023-03-23T06:02:20;5.90;;;2.70;;
75459;SDS011;64039;53.060;9.342;2023-03-23T06:04:48;5.53;;;2.75;;
75459;SDS011;64039;53.060;9.342;2023-03-23T06:07:14;7.75;;;3.13;;
75459;SDS011;64039;53.060;9.342;2023-03-23T06:09:40;3.67;;;2.55;;
75459;SDS011;64039;53.060;9.342;2023-03-23T06:12:06;4.32;;;2.60;;
75459;SDS011;64039;53.060;9.342;2023-03-23T06:14:33;5.20;;;2.53;;
75459;SDS011;64039;53.060;9.342;2023-03-23T06:16:59;3.35;;;2.50;;
75459;SDS011;64039;53.060;9.342;2023-03-23T06:19:24;5.20;;;3.00;;
75459;SDS011;64039;53.060;9.342;2023-03-23T06:21:51;5.95;;;3.00;;
75459;SDS011;64039;53.060;9.342;2023-03-23T06:24:17;3.60;;;2.60;;
75459;SDS011;64039;53.060;9.342;2023-03-23T06:26:43;3.08;;;2.28;;
75459;SDS011;64039;53.060;9.342;2023-03-23T06:29:09;3.17;;;2.30;;
75459;SDS011;64039;53.060;9.342;2023-03-23T06:31:41;6.70;;;2.60;;
75459;SDS011;64039;53.060;9.342;2023-03-23T06:34:10;3.40;;;2.72;;
75459;SDS011;64039;53.060;9.342;2023-03-23T06:36:36;4.68;;;2.72;;
75459;SDS011;64039;53.060;9.342;2023-03-23T06:39:03;5.07;;;2.70;;
75459;SDS011;64039;53.060;9.342;2023-03-23T06:41:30;3.00;;;2.40;;
75459;SDS011;64039;53.060;9.342;2023-03-23T06:43:58;3.55;;;2.55;;
75459;SDS011;64039;53.060;9.342;2023-03-23T06:46:24;5.35;;;2.60;;
75459;SDS011;64039;53.060;9.342;2023-03-23T06:48:50;4.65;;;2.85;;
75459;SDS011;64039;53.060;9.342;2023-03-23T06:51:16;6.38;;;2.88;;
75459;SDS011;64039;53.060;9.342;2023-03-23T06:53:43;6.30;;;3.15;;
75459;SDS011;64039;53.060;9.342;2023-03-23T06:56:08;6.70;;;3.15;;
75459;SDS011;64039;53.060;9.342;2023-03-23T06:58:34;6.38;;;3.53;;
75459;SDS011;64039;53.060;9.342;2023-03-23T07:01:00;4.88;;;3.40;;
75459;SDS011;64039;53.060;9.342;2023-03-23T07:03:26;3.92;;;3.25;;
75459;SDS011;64039;53.060;9.342;2023-03-23T07:05:53;3.75;;;2.95;;
75459;SDS011;64039;53.060;9.342;2023-03-23T07:08:19;5.18;;;3.58;;
75459;SDS011;64039;53.060;9.342;2023-03-23T07:10:46;5.70;;;3.40;;
75459;SDS011;64039;53.060;9.342;2023-03-23T07:13:12;5.88;;;3.35;;
75459;SDS011;64039;53.060;9.342;2023-03-23T07:15:38;4.30;;;3.50;;
75459;SDS011;64039;53.060;9.342;2023-03-23T07:18:04;5.63;;;2.97;;
75459;SDS011;64039;53.060;9.342;2023-03-23T07:20:29;4.70;;;3.33;;
75459;SDS011;64039;53.060;9.342;2023-03-23T07:22:55;4.00;;;3.15;;
75459;SDS011;64039;53.060;9.342;2023-03-23T07:25:20;4.50;;;3.08;;
75459;SDS011;64039;53.060;9.342;2023-03-23T07:27:46;9.15;;;3.03;;
75459;SDS011;64039;53.060;9.342;2023-03-23T07:30:12;3.80;;;3.20;;
75459;SDS011;64039;53.060;9.342;2023-03-23T07:32:39;4.55;;;3.00;;
75459;SDS011;64039;53.060;9.342;2023-03-23T07:35:06;4.97;;;3.00;;
75459;SDS011;64039;53.060;9.342;2023-03-23T07:37:34;5.35;;;2.80;;
75459;SDS011;64039;53.060;9.342;2023-03-23T07:40:01;3.50;;;3.05;;
75459;SDS011;64039;53.060;9.342;2023-03-23T07:42:39;3.70;;;2.53;;
75459;SDS011;64039;53.060;9.342;2023-03-23T07:45:11;4.50;;;2.50;;
75459;SDS011;64039;53.060;9.342;2023-03-23T07:47:38;4.05;;;2.80;;
75459;SDS011;64039;53.060;9.342;2023-03-23T07:50:04;5.55;;;2.92;;
75459;SDS011;64039;53.060;9.342;2023-03-23T07:52:31;5.53;;;2.70;;
75459;SDS011;64039;53.060;9.342;2023-03-23T07:54:58;2.97;;;2.67;;
75459;SDS011;64039;53.060;9.342;2023-03-23T07:57:23;3.42;;;2.50;;
75459;SDS011;64039;53.060;9.342;2023-03-23T07:59:49;3.75;;;2.75;;
75459;SDS011;64039;53.060;9.342;2023-03-23T08:02:14;6.13;;;2.72;;
75459;SDS011;64039;53.060;9.342;2023-03-23T08:04:40;4.15;;;2.97;;
75459;SDS011;64039;53.060;9.342;2023-03-23T08:07:05;4.03;;;2.90;;
75459;SDS011;64039;53.060;9.342;2023-03-23T08:09:31;6.70;;;3.70;;
75459;SDS011;64039;53.060;9.342;2023-03-23T08:11:56;5.85;;;3.60;;
75459;SDS011;64039;53.060;9.342;2023-03-23T08:14:22;9.15;;;4.30;;
75459;SDS011;64039;53.060;9.342;2023-03-23T08:16:51;3.83;;;2.28;;
75459;SDS011;64039;53.060;9.342;2023-03-23T08:19:17;5.43;;;2.47;;
75459;SDS011;64039;53.060;9.342;2023-03-23T08:21:42;5.80;;;2.00;;
75459;SDS011;64039;53.060;9.342;2023-03-23T08:24:08;4.68;;;2.10;;
75459;SDS011;64039;53.060;9.342;2023-03-23T08:26:33;4.00;;;1.80;;
75459;SDS011;64039;53.060;9.342;2023-03-23T08:28:59;6.45;;;2.30;;
75459;SDS011;64039;53.060;9.342;2023-03-23T08:31:25;3.80;;;1.80;;
75459;SDS011;64039;53.060;9.342;2023-03-23T08:33:50;4.43;;;1.63;;
75459;SDS011;64039;53.060;9.342;2023-03-23T08:36:16;5.68;;;1.70;;
75459;SDS011;64039;53.060;9.342;2023-03-23T08:38:41;7.45;;;1.90;;
75459;SDS011;64039;53.060;9.342;2023-03-23T08:41:08;5.35;;;1.83;;
75459;SDS011;64039;53.060;9.342;2023-03-23T08:43:34;4.97;;;1.50;;
75459;SDS011;64039;53.060;9.342;2023-03-23T08:46:00;4.75;;;1.35;;
75459;SDS011;64039;53.060;9.342;2023-03-23T08:48:32;5.72;;;1.48;;
75459;SDS011;64039;53.060;9.342;2023-03-23T08:50:58;5.72;;;1.45;;
75459;SDS011;64039;53.060;9.342;2023-03-23T08:53:24;6.13;;;1.80;;
75459;SDS011;64039;53.060;9.342;2023-03-23T08:55:51;7.68;;;1.60;;
75459;SDS011;64039;53.060;9.342;2023-03-23T08:58:16;8.60;;;1.85;;
75459;SDS011;64039;53.060;9.342;2023-03-23T09:00:42;9.43;;;3.53;;
75459;SDS011;64039;53.060;9.342;2023-03-23T09:03:08;3.40;;;1.60;;
75459;SDS011;64039;53.060;9.342;2023-03-23T09:05:33;9.32;;;1.60;;
75459;SDS011;64039;53.060;9.342;2023-03-23T09:08:00;6.60;;;1.50;;
75459;SDS011;64039;53.060;9.342;2023-03-23T09:10:28;8.10;;;1.85;;
75459;SDS011;64039;53.060;9.342;2023-03-23T09:12:55;6.50;;;1.40;;
75459;SDS011;64039;53.060;9.342;2023-03-23T09:15:21;8.00;;;1.67;;
75459;SDS011;64039;53.060;9.342;2023-03-23T09:17:48;6.95;;;1.48;;
75459;SDS011;64039;53.060;9.342;2023-03-23T09:20:17;10.02;;;1.80;;
75459;SDS011;64039;53.060;9.342;2023-03-23T09:22:46;8.40;;;1.83;;
75459;SDS011;64039;53.060;9.342;2023-03-23T09:25:14;10.10;;;2.22;;
75459;SDS011;64039;53.060;9.342;2023-03-23T09:27:44;7.88;;;2.15;;
75459;SDS011;64039;53.060;9.342;2023-03-23T09:30:12;7.85;;;1.70;;
75459;SDS011;64039;53.060;9.342;2023-03-23T09:32:39;7.97;;;2.10;;
75459;SDS011;64039;53.060;9.342;2023-03-23T09:35:06;6.50;;;1.65;;
75459;SDS011;64039;53.060;9.342;2023-03-23T09:37:34;6.18;;;1.60;;
75459;SDS011;64039;53.060;9.342;2023-03-23T09:40:01;9.80;;;1.98;;
75459;SDS011;64039;53.060;9.342;2023-03-23T09:42:41;10.70;;;2.35;;
75459;SDS011;64039;53.060;9.342;2023-03-23T09:45:36;7.68;;;1.77;;
75459;SDS011;64039;53.060;9.342;2023-03-23T09:48:23;3.75;;;1.63;;
75459;SDS011;64039;53.060;9.342;2023-03-23T09:51:10;6.20;;;1.70;;
75459;SDS011;64039;53.060;9.342;2023-03-23T09:53:45;7.57;;;1.70;;
75459;SDS011;64039;53.060;9.342;2023-03-23T09:56:15;10.23;;;2.20;;
75459;SDS011;64039;53.060;9.342;2023-03-23T10:02:11;5.60;;;1.45;;
75459;SDS011;64039;53.060;9.342;2023-03-23T10:04:49;7.85;;;2.00;;
75459;SDS011;64039;53.060;9.342;2023-03-23T10:07:24;6.05;;;1.55;;
75459;SDS011;64039;53.060;9.342;2023-03-23T10:09:52;5.50;;;1.70;;
75459;SDS011;64039;53.060;9.342;2023-03-23T10:12:54;3.50;;;1.30;;
75459;SDS011;64039;53.060;9.342;2023-03-23T10:15:20;6.65;;;1.70;;
75459;SDS011;64039;53.060;9.342;2023-03-23T10:18:00;7.43;;;1.77;;
75459;SDS011;64039;53.060;9.342;2023-03-23T10:20:43;7.45;;;1.80;;
75459;SDS011;64039;53.060;9.342;2023-03-23T10:23:41;9.18;;;1.77;;
75459;SDS011;64039;53.060;9.342;2023-03-23T10:29:18;8.75;;;2.05;;
75459;SDS011;64039;53.060;9.342;2023-03-23T10:34:52;12.32;;;2.10;;
75459;SDS011;64039;53.060;9.342;2023-03-23T10:37:23;12.05;;;2.60;;
75459;SDS011;64039;53.060;9.342;2023-03-23T10:39:53;10.85;;;2.70;;
75459;SDS011;64039;53.060;9.342;2023-03-23T10:44:52;11.05;;;2.30;;
75459;SDS011;64039;53.060;9.342;2023-03-23T10:47:18;9.30;;;2.22;;
75459;SDS011;64039;53.060;9.342;2023-03-23T10:49:50;14.27;;;2.42;;
75459;SDS011;64039;53.060;9.342;2023-03-23T10:52:30;8.25;;;2.08;;
75459;SDS011;64039;53.060;9.342;2023-03-23T10:55:04;9.82;;;2.28;;
75459;SDS011;64039;53.060;9.342;2023-03-23T10:57:35;9.45;;;2.20;;
75459;SDS011;64039;53.060;9.342;2023-03-23T11:02:41;11.70;;;2.10;;
75459;SDS011;64039;53.060;9.342;2023-03-23T11:05:21;8.65;;;2.20;;
75459;SDS011;64039;53.060;9.342;2023-03-23T11:07:50;8.50;;;2.30;;
75459;SDS011;64039;53.060;9.342;2023-03-23T11:10:25;8.95;;;2.00;;
75459;SDS011;64039;53.060;9.342;2023-03-23T11:12:56;11.70;;;2.28;;
75459;SDS011;64039;53.060;9.342;2023-03-23T11:15:27;7.70;;;2.05;;
75459;SDS011;64039;53.060;9.342;2023-03-23T11:20:25;11.10;;;2.60;;
75459;SDS011;64039;53.060;9.342;2023-03-23T11:22:53;9.18;;;2.85;;
75459;SDS011;64039;53.060;9.342;2023-03-23T11:25:20;11.90;;;2.72;;
75459;SDS011;64039;53.060;9.342;2023-03-23T11:27:46;11.82;;;2.55;;
75459;SDS011;64039;53.060;9.342;2023-03-23T11:30:25;7.95;;;2.40;;
75459;SDS011;64039;53.060;9.342;2023-03-23T11:32:55;8.27;;;2.80;;
75459;SDS011;64039;53.060;9.342;2023-03-23T11:35:26;8.80;;;2.33;;
75459;SDS011;64039;53.060;9.342;2023-03-23T11:40:24;10.38;;;2.50;;
75459;SDS011;64039;53.060;9.342;2023-03-23T11:48:12;6.32;;;2.20;;
75459;SDS011;64039;53.060;9.342;2023-03-23T11:50:52;8.32;;;2.67;;
75459;SDS011;64039;53.060;9.342;2023-03-23T11:56:37;6.78;;;2.83;;
75459;SDS011;64039;53.060;9.342;2023-03-23T11:59:12;8.95;;;2.72;;
75459;SDS011;64039;53.060;9.342;2023-03-23T12:01:49;7.43;;;2.58;;
75459;SDS011;64039;53.060;9.342;2023-03-23T12:15:25;5.85;;;2.22;;
75459;SDS011;64039;53.060;9.342;2023-03-23T12:18:06;6.03;;;2.33;;
75459;SDS011;64039;53.060;9.342;2023-03-23T12:23:23;10.63;;;2.95;;
75459;SDS011;64039;53.060;9.342;2023-03-23T12:25:54;7.35;;;2.53;;
75459;SDS011;64039;53.060;9.342;2023-03-23T12:28:35;3.60;;;1.70;;
75459;SDS011;64039;53.060;9.342;2023-03-23T12:39:38;5.43;;;1.70;;
75459;SDS011;64039;53.060;9.342;2023-03-23T12:42:11;5.75;;;2.05;;
75459;SDS011;64039;53.060;9.342;2023-03-23T12:47:35;6.53;;;2.00;;
75459;SDS011;64039;53.060;9.342;2023-03-23T12:56:02;4.18;;;1.73;;
75459;SDS011;64039;53.060;9.342;2023-03-23T12:58:49;4.80;;;1.80;;
75459;SDS011;64039;53.060;9.342;2023-03-23T13:01:20;3.58;;;1.88;;
75459;SDS011;64039;53.060;9.342;2023-03-23T13:03:56;5.07;;;1.90;;
75459;SDS011;64039;53.060;9.342;2023-03-23T13:06:27;4.53;;;1.55;;
75459;SDS011;64039;53.060;9.342;2023-03-23T13:11:49;6.68;;;2.50;;
75459;SDS011;64039;53.060;9.342;2023-03-23T13:14:37;4.50;;;1.70;;
75459;SDS011;64039;53.060;9.342;2023-03-23T13:28:28;2.45;;;1.20;;
75459;SDS011;64039;53.060;9.342;2023-03-23T13:33:38;2.20;;;1.20;;
75459;SDS011;64039;53.060;9.342;2023-03-23T13:36:09;2.65;;;1.27;;
75459;SDS011;64039;53.060;9.342;2023-03-23T13:41:21;3.90;;;1.23;;
75459;SDS011;64039;53.060;9.342;2023-03-23T13:43:47;5.50;;;1.75;;
75459;SDS011;64039;53.060;9.342;2023-03-23T13:46:27;4.32;;;1.33;;
75459;SDS011;64039;53.060;9.342;2023-03-23T13:51:36;4.90;;;1.50;;
75459;SDS011;64039;53.060;9.342;2023-03-23T14:01:55;4.38;;;1.52;;
75459;SDS011;64039;53.060;9.342;2023-03-23T14:04:42;3.55;;;1.65;;
75459;SDS011;64039;53.060;9.342;2023-03-23T14:07:12;5.38;;;1.60;;
75459;SDS011;64039;53.060;9.342;2023-03-23T14:09:41;2.70;;;1.15;;
75459;SDS011;64039;53.060;9.342;2023-03-23T14:14:55;3.22;;;1.38;;
75459;SDS011;64039;53.060;9.342;2023-03-23T14:17:28;5.75;;;1.83;;
75459;SDS011;64039;53.060;9.342;2023-03-23T14:19:55;4.10;;;1.80;;
75459;SDS011;64039;53.060;9.342;2023-03-23T14:22:26;3.60;;;1.42;;
75459;SDS011;64039;53.060;9.342;2023-03-23T14:25:01;4.75;;;1.52;;
75459;SDS011;64039;53.060;9.342;2023-03-23T14:27:34;3.30;;;1.30;;
75459;SDS011;64039;53.060;9.342;2023-03-23T14:30:01;7.45;;;1.40;;
75459;SDS011;64039;53.060;9.342;2023-03-23T14:32:30;5.90;;;1.80;;
75459;SDS011;64039;53.060;9.342;2023-03-23T14:34:57;4.50;;;1.50;;
75459;SDS011;64039;53.060;9.342;2023-03-23T14:37:26;2.05;;;1.10;;
75459;SDS011;64039;53.060;9.342;2023-03-23T14:39:52;3.63;;;1.10;;
75459;SDS011;64039;53.060;9.342;2023-03-23T14:42:26;6.60;;;1.40;;
75459;SDS011;64039;53.060;9.342;2023-03-23T14:44:55;5.25;;;1.33;;
75459;SDS011;64039;53.060;9.342;2023-03-23T14:47:30;2.95;;;1.33;;
75459;SDS011;64039;53.060;9.342;2023-03-23T14:49:58;3.40;;;1.40;;
75459;SDS011;64039;53.060;9.342;2023-03-23T14:52:26;2.60;;;1.10;;
75459;SDS011;64039;53.060;9.342;2023-03-23T14:54:52;2.63;;;1.15;;
75459;SDS011;64039;53.060;9.342;2023-03-23T14:57:20;4.15;;;0.80;;
75459;SDS011;64039;53.060;9.342;2023-03-23T14:59:52;4.57;;;1.08;;
75459;SDS011;64039;53.060;9.342;2023-03-23T15:02:25;3.50;;;1.00;;
75459;SDS011;64039;53.060;9.342;2023-03-23T15:04:54;3.65;;;1.00;;
75459;SDS011;64039;53.060;9.342;2023-03-23T15:07:25;2.75;;;1.00;;
75459;SDS011;64039;53.060;9.342;2023-03-23T15:09:55;6.85;;;1.20;;
75459;SDS011;64039;53.060;9.342;2023-03-23T15:12:21;3.05;;;1.20;;
75459;SDS011;64039;53.060;9.342;2023-03-23T15:14:51;4.13;;;1.92;;
75459;SDS011;64039;53.060;9.342;2023-03-23T15:17:23;4.03;;;1.13;;
75459;SDS011;64039;53.060;9.342;2023-03-23T15:19:52;3.83;;;1.27;;
75459;SDS011;64039;53.060;9.342;2023-03-23T15:24:52;7.80;;;1.40;;
75459;SDS011;64039;53.060;9.342;2023-03-23T15:27:30;5.07;;;1.20;;
75459;SDS011;64039;53.060;9.342;2023-03-23T15:29:59;4.68;;;1.30;;
75459;SDS011;64039;53.060;9.342;2023-03-23T15:32:40;3.67;;;1.10;;
75459;SDS011;64039;53.060;9.342;2023-03-23T15:35:13;7.75;;;1.30;;
75459;SDS011;64039;53.060;9.342;2023-03-23T15:37:44;3.45;;;1.08;;
75459;SDS011;64039;53.060;9.342;2023-03-23T15:40:19;3.72;;;1.30;;
75459;SDS011;64039;53.060;9.342;2023-03-23T15:42:49;5.72;;;1.40;;
75459;SDS011;64039;53.060;9.342;2023-03-23T15:45:29;5.55;;;1.30;;
75459;SDS011;64039;53.060;9.342;2023-03-23T15:47:58;6.70;;;1.23;;
75459;SDS011;64039;53.060;9.342;2023-03-23T15:50:35;4.68;;;1.50;;
75459;SDS011;64039;53.060;9.342;2023-03-23T15:53:01;6.13;;;2.10;;
75459;SDS011;64039;53.060;9.342;2023-03-23T15:55:40;4.95;;;1.45;;
75459;SDS011;64039;53.060;9.342;2023-03-23T15:58:11;3.78;;;1.48;;
75459;SDS011;64039;53.060;9.342;2023-03-23T16:00:37;4.65;;;1.30;;
75459;SDS011;64039;53.060;9.342;2023-03-23T16:03:05;3.70;;;1.48;;
75459;SDS011;64039;53.060;9.342;2023-03-23T16:05:33;4.70;;;1.20;;
75459;SDS011;64039;53.060;9.342;2023-03-23T16:07:59;4.40;;;1.35;;
75459;SDS011;64039;53.060;9.342;2023-03-23T16:10:25;5.22;;;1.50;;
75459;SDS011;64039;53.060;9.342;2023-03-23T16:12:52;2.97;;;1.33;;
75459;SDS011;64039;53.060;9.342;2023-03-23T16:15:17;4.97;;;1.20;;
75459;SDS011;64039;53.060;9.342;2023-03-23T16:17:43;6.72;;;1.40;;
75459;SDS011;64039;53.060;9.342;2023-03-23T16:20:17;3.83;;;1.30;;
75459;SDS011;64039;53.060;9.342;2023-03-23T16:22:45;7.20;;;1.60;;
75459;SDS011;64039;53.060;9.342;2023-03-23T16:25:12;4.28;;;1.23;;
75459;SDS011;64039;53.060;9.342;2023-03-23T16:27:38;6.10;;;1.50;;
75459;SDS011;64039;53.060;9.342;2023-03-23T16:30:15;4.03;;;1.40;;
75459;SDS011;64039;53.060;9.342;2023-03-23T16:32:43;7.10;;;1.35;;
75459;SDS011;64039;53.060;9.342;2023-03-23T16:35:09;5.28;;;1.35;;
75459;SDS011;64039;53.060;9.342;2023-03-23T16:37:34;4.68;;;1.10;;
75459;SDS011;64039;53.060;9.342;2023-03-23T16:40:00;3.63;;;1.17;;
75459;SDS011;64039;53.060;9.342;2023-03-23T16:42:27;5.22;;;1.25;;
75459;SDS011;64039;53.060;9.342;2023-03-23T16:44:52;3.97;;;1.10;;
75459;SDS011;64039;53.060;9.342;2023-03-23T16:47:18;4.07;;;1.10;;
75459;SDS011;64039;53.060;9.342;2023-03-23T16:49:49;4.03;;;1.08;;
75459;SDS011;64039;53.060;9.342;2023-03-23T16:52:15;6.10;;;1.27;;